Time;durP1;ratioP1;P1;durP2;ratioP2;P2;SDS_P1;SDS_P2;PMS_P1;PMS_P2;Temp;Humidity;BMP_temperature;BMP_pressure;BME280_temperature;BME280_humidity;BME280_pressure;Samples;Min_cycle;Max_cycle;Signal;HPM_P1;HPM_P2
2022/10/23 00:00:29;;;;;;;34.58;22.60;;;;;;;12.50;100.00;100826.31;5007908;28;20048;-71
2022/10/23 00:02:55;;;;;;;34.05;22.42;;;;;;;12.61;100.00;100847.78;5008025;28;20033;-71
2022/10/23 00:05:22;;;;;;;34.80;23.17;;;;;;;12.57;100.00;100849.84;5005948;28;20026;-71
2022/10/23 00:07:52;;;;;;;31.88;22.30;;;;;;;12.56;100.00;100852.69;5008091;28;20391;-71
2022/10/23 00:10:19;;;;;;;36.42;24.67;;;;;;;12.60;100.00;100859.50;5008113;28;20391;-71
2022/10/23 00:12:45;;;;;;;34.45;24.23;;;;;;;12.44;100.00;100816.09;5006429;28;20025;-71
2022/10/23 00:15:11;;;;;;;32.08;23.58;;;;;;;12.62;100.00;100844.06;5007159;28;20029;-72
2022/10/23 00:17:37;;;;;;;34.72;24.65;;;;;;;12.47;100.00;100813.13;5007208;28;20053;-71
2022/10/23 00:20:04;;;;;;;33.88;24.67;;;;;;;12.68;100.00;100832.78;5007643;28;20025;-72
2022/10/23 00:22:29;;;;;;;36.97;24.15;;;;;;;12.70;100.00;100852.31;5007952;28;20556;-71
2022/10/23 00:24:55;;;;;;;35.67;24.40;;;;;;;12.64;100.00;100850.19;5007975;28;20025;-71
2022/10/23 00:27:20;;;;;;;34.55;25.60;;;;;;;12.74;100.00;100860.00;5007455;28;20026;-71
2022/10/23 00:29:46;;;;;;;37.15;24.33;;;;;;;12.67;100.00;100831.91;5007643;28;20029;-71
2022/10/23 00:32:11;;;;;;;38.33;26.38;;;;;;;12.80;100.00;100839.78;5007559;28;20129;-69
2022/10/23 00:34:39;;;;;;;34.47;25.75;;;;;;;12.77;100.00;100856.19;5005831;28;20107;-70
2022/10/23 00:37:05;;;;;;;37.33;26.55;;;;;;;12.74;100.00;100849.22;5007875;28;20361;-69
2022/10/23 00:39:30;;;;;;;38.05;25.67;;;;;;;12.87;100.00;100857.09;5007058;28;20037;-69
2022/10/23 00:41:56;;;;;;;38.47;26.85;;;;;;;12.79;100.00;100840.75;5005742;28;20046;-69
2022/10/23 00:44:21;;;;;;;39.30;26.60;;;;;;;12.85;100.00;100867.97;5007635;28;20038;-70
2022/10/23 00:46:47;;;;;;;37.88;25.88;;;;;;;12.77;100.00;100856.19;5005992;28;20073;-70
2022/10/23 00:49:14;;;;;;;42.13;27.75;;;;;;;12.74;100.00;100862.69;5007125;28;20038;-70
2022/10/23 00:51:46;;;;;;;45.08;29.00;;;;;;;12.76;100.00;100852.63;5005828;28;20585;-69
2022/10/23 00:54:15;;;;;;;44.10;29.15;;;;;;;12.87;100.00;100873.22;5007476;28;20444;-70
2022/10/23 00:56:43;;;;;;;42.53;27.63;;;;;;;12.83;100.00;100852.97;5007274;28;20022;-70
2022/10/23 00:59:09;;;;;;;39.90;27.05;;;;;;;12.85;100.00;100845.59;5007214;28;20391;-69
2022/10/23 01:01:35;;;;;;;42.55;26.83;;;;;;;12.62;100.00;100828.78;5007222;28;20476;-72
2022/10/23 01:04:03;;;;;;;39.72;26.00;;;;;;;12.90;100.00;100852.25;5005710;28;20028;-71
2022/10/23 01:06:36;;;;;;;38.10;24.40;;;;;;;12.90;100.00;100860.34;5007894;28;20472;-71
2022/10/23 01:09:31;;;;;;;37.33;25.25;;;;;;;12.76;100.00;100852.63;5008313;28;20028;-71
2022/10/23 01:11:58;;;;;;;40.40;26.10;;;;;;;12.91;100.00;100871.97;4982926;28;20507;-72
2022/10/23 01:14:33;;;;;;;42.30;27.27;;;;;;;12.78;100.00;100866.81;4987283;28;20560;-71
2022/10/23 01:17:08;;;;;;;42.78;28.38;;;;;;;12.94;100.00;100869.00;4991737;28;20030;-71
2022/10/23 01:19:52;;;;;;;46.15;29.00;;;;;;;12.88;100.00;100883.00;4993858;28;20499;-71
2022/10/23 01:22:52;;;;;;;47.85;30.38;;;;;;;13.02;100.00;100877.28;5011971;28;20034;-71
2022/10/23 01:25:39;;;;;;;49.15;29.73;;;;;;;12.96;100.00;100877.81;5010483;28;20041;-72
2022/10/23 01:28:10;;;;;;;53.15;32.90;;;;;;;12.90;100.00;100881.03;5011999;28;20117;-71
2022/10/23 01:30:41;;;;;;;58.08;34.25;;;;;;;12.77;100.00;100846.25;5010144;28;20080;-71
2022/10/23 01:33:11;;;;;;;59.15;32.65;;;;;;;12.98;100.00;100894.66;5010026;28;20041;-72
2022/10/23 01:35:48;;;;;;;55.40;33.83;;;;;;;12.95;100.00;100884.16;5011589;28;20061;-69
2022/10/23 01:38:26;;;;;;;57.45;33.75;;;;;;;12.90;100.00;100886.44;5010151;28;20034;-70
2022/10/23 01:41:01;;;;;;;65.95;37.08;;;;;;;12.88;100.00;100870.41;5010856;28;20042;-69
2022/10/23 01:43:34;;;;;;;60.88;34.85;;;;;;;13.01;100.00;100889.91;5011687;28;20030;-70
2022/10/23 01:46:07;;;;;;;56.90;34.72;;;;;;;12.98;100.00;100884.75;5010341;28;20435;-70
2022/10/23 01:48:35;;;;;;;63.15;37.10;;;;;;;12.96;100.00;100889.41;5011668;28;20029;-71
2022/10/23 01:51:04;;;;;;;64.45;37.40;;;;;;;12.90;100.00;100898.03;5011891;28;20026;-70
2022/10/23 01:53:35;;;;;;;68.15;37.58;;;;;;;12.87;100.00;100892.91;5011931;28;20037;-70
2022/10/23 01:56:02;;;;;;;67.03;37.80;;;;;;;12.81;100.00;100885.41;5010264;28;20456;-70
2022/10/23 01:58:29;;;;;;;61.58;37.70;;;;;;;13.07;100.00;100883.13;5010091;28;20407;-70
2022/10/23 02:01:00;;;;;;;63.85;36.53;;;;;;;12.96;100.00;100884.03;5011611;28;20464;-70
2022/10/23 02:03:29;;;;;;;61.15;36.85;;;;;;;13.01;100.00;100895.28;5011436;28;20053;-70
2022/10/23 02:05:54;;;;;;;57.25;34.22;;;;;;;12.83;100.00;100879.88;5010106;28;20026;-72
2022/10/23 02:08:20;;;;;;;50.83;33.15;;;;;;;12.79;100.00;100894.56;5011406;28;20026;-72
2022/10/23 02:10:59;;;;;;;48.70;31.42;;;;;;;12.80;100.00;100890.91;5011288;28;20460;-72
2022/10/23 02:13:32;;;;;;;48.60;30.55;;;;;;;12.73;100.00;100877.13;5011399;28;20384;-72
2022/10/23 02:16:08;;;;;;;43.08;29.92;;;;;;;12.86;100.00;100903.81;5011552;28;20045;-72
2022/10/23 02:18:51;;;;;;;40.30;27.25;;;;;;;12.77;100.00;100875.03;5010257;28;20038;-72
2022/10/23 02:21:33;;;;;;;38.65;27.42;;;;;;;13.07;100.00;100905.53;5011090;28;20030;-71
2022/10/23 02:24:06;;;;;;;35.15;25.52;;;;;;;13.04;100.00;100908.47;5011951;28;20492;-72
2022/10/23 02:27:00;;;;;;;40.95;26.15;;;;;;;12.99;100.00;100913.41;5011328;28;20495;-72
2022/10/23 02:29:28;;;;;;;36.95;25.80;;;;;;;12.91;100.00;100906.97;5009221;28;20092;-73
2022/10/23 02:31:54;;;;;;;38.00;26.42;;;;;;;12.97;100.00;100925.28;5010063;28;20480;-73
2022/10/23 02:34:20;;;;;;;36.33;26.10;;;;;;;12.96;100.00;100924.41;5010857;28;20095;-72
2022/10/23 02:36:45;;;;;;;32.08;24.20;;;;;;;13.04;100.00;100923.78;5011005;28;20065;-72
2022/10/23 02:39:11;;;;;;;35.60;25.45;;;;;;;13.05;100.00;100917.41;5010815;28;20446;-71
2022/10/23 02:42:21;;;;;;;32.78;23.95;;;;;;;13.02;100.00;100923.06;5009174;28;20049;-72
2022/10/23 02:45:18;;;;;;;31.90;23.73;;;;;;;12.95;100.00;100913.78;5000040;28;20141;-72
2022/10/23 02:48:11;;;;;;;32.17;23.80;;;;;;;12.93;100.00;100910.38;4987412;28;20181;-73
2022/10/23 02:50:48;;;;;;;33.22;23.45;;;;;;;13.02;100.00;100942.75;5010740;28;20562;-73
2022/10/23 02:53:23;;;;;;;31.02;22.75;;;;;;;12.97;100.00;100936.88;5009301;28;20033;-73
2022/10/23 02:56:19;;;;;;;32.72;23.23;;;;;;;13.02;100.00;100931.13;5010419;28;20030;-71
2022/10/23 02:59:03;;;;;;;32.08;22.60;;;;;;;13.04;100.00;100943.50;5009987;28;20042;-71
2022/10/23 03:01:39;;;;;;;26.40;20.85;;;;;;;12.93;100.00;100921.16;5010737;28;20076;-70
2022/10/23 03:04:07;;;;;;;27.17;20.38;;;;;;;13.01;100.00;100943.75;5010592;28;20034;-70
2022/10/23 03:06:33;;;;;;;28.15;21.27;;;;;;;13.08;100.00;100944.91;5006999;28;20452;-70
2022/10/23 03:09:06;;;;;;;28.40;21.23;;;;;;;12.94;100.00;100937.19;4996687;28;20076;-71
2022/10/23 03:11:31;;;;;;;27.80;20.95;;;;;;;12.93;100.00;100943.53;5009992;28;20030;-70
2022/10/23 03:13:57;;;;;;;27.45;21.88;;;;;;;13.15;100.00;100950.59;5001396;28;20026;-71
2022/10/23 03:16:22;;;;;;;28.73;21.00;;;;;;;13.06;100.00;100943.38;5001519;28;20073;-70
2022/10/23 03:18:48;;;;;;;28.55;21.95;;;;;;;13.18;100.00;100956.59;4999460;28;20431;-70
2022/10/23 03:21:13;;;;;;;27.52;21.60;;;;;;;13.10;100.00;100940.22;4998269;28;20085;-70
2022/10/23 03:23:39;;;;;;;26.33;21.27;;;;;;;13.04;100.00;100934.56;5002976;28;20395;-70
2022/10/23 03:26:04;;;;;;;26.65;20.30;;;;;;;13.08;100.00;100947.63;4999804;28;20018;-70
2022/10/23 03:28:30;;;;;;;29.67;22.58;;;;;;;13.08;100.00;100950.31;4998756;28;20014;-70
2022/10/23 03:30:55;;;;;;;28.98;21.00;;;;;;;13.00;100.00;100952.81;4997963;28;20014;-70
2022/10/23 03:33:21;;;;;;;25.48;20.10;;;;;;;13.01;100.00;100950.97;4998164;28;20026;-73
2022/10/23 03:35:49;;;;;;;29.75;21.17;;;;;;;13.14;100.00;100960.53;4995384;28;20068;-73
2022/10/23 03:38:15;;;;;;;25.45;20.83;;;;;;;13.10;100.00;100963.63;5002377;28;20649;-73
2022/10/23 03:40:41;;;;;;;30.67;22.02;;;;;;;13.08;100.00;100968.28;4993307;28;20554;-73
2022/10/23 03:43:07;;;;;;;33.53;23.55;;;;;;;13.16;100.00;100974.72;4996364;28;20506;-73
2022/10/23 03:45:33;;;;;;;29.05;21.48;;;;;;;12.98;100.00;100953.91;4999477;28;20026;-73
2022/10/23 03:47:58;;;;;;;31.08;23.30;;;;;;;12.97;100.00;100953.03;4996940;28;20030;-73
2022/10/23 03:50:24;;;;;;;31.15;22.52;;;;;;;12.99;100.00;100953.81;5004849;28;20695;-72
2022/10/23 03:52:49;;;;;;;30.42;22.17;;;;;;;13.05;100.00;100974.81;5001491;28;20075;-72
2022/10/23 03:55:15;;;;;;;29.48;22.73;;;;;;;13.02;100.00;100971.53;4993236;28;20102;-72
2022/10/23 03:57:41;;;;;;;28.65;21.60;;;;;;;13.01;100.00;100968.00;5002415;28;20030;-71
2022/10/23 04:00:07;;;;;;;27.90;21.73;;;;;;;12.88;100.00;100944.94;4998426;28;20099;-71
2022/10/23 04:02:32;;;;;;;32.55;23.25;;;;;;;12.78;100.00;100920.66;4995004;28;20381;-72
2022/10/23 04:04:58;;;;;;;30.33;22.63;;;;;;;13.08;100.00;100963.78;4998522;28;20120;-71
2022/10/23 04:07:23;;;;;;;30.73;22.55;;;;;;;13.08;100.00;100960.22;5000119;28;20049;-72
2022/10/23 04:09:49;;;;;;;30.20;22.33;;;;;;;13.07;100.00;100972.84;4995753;28;20396;-71
2022/10/23 04:12:15;;;;;;;29.52;22.08;;;;;;;13.11;100.00;100981.50;5005085;28;20109;-72
2022/10/23 04:14:41;;;;;;;30.55;22.67;;;;;;;13.01;100.00;100985.97;5000300;28;20037;-72
2022/10/23 04:17:06;;;;;;;32.35;23.38;;;;;;;13.03;100.00;100997.50;5015819;28;20026;-72
2022/10/23 04:19:32;;;;;;;32.33;23.27;;;;;;;13.03;100.00;100994.78;5005067;28;20073;-70
2022/10/23 04:21:57;;;;;;;29.73;22.58;;;;;;;12.98;100.00;100980.81;4998888;28;20033;-70
2022/10/23 04:24:24;;;;;;;30.33;21.15;;;;;;;13.05;100.00;100996.34;4999055;28;20052;-70
2022/10/23 04:26:50;;;;;;;30.63;22.52;;;;;;;13.04;100.00;101002.75;4997045;28;20501;-72
2022/10/23 04:29:15;;;;;;;29.08;22.65;;;;;;;12.98;100.00;100983.53;5000534;28;20112;-72
2022/10/23 04:31:40;;;;;;;30.30;23.00;;;;;;;13.02;100.00;100995.75;5003134;28;20022;-72
2022/10/23 04:34:06;;;;;;;29.60;22.95;;;;;;;12.97;100.00;100995.28;5008858;28;20028;-72
2022/10/23 04:36:31;;;;;;;33.17;23.50;;;;;;;13.04;100.00;101001.88;5008620;28;20042;-72
2022/10/23 04:38:57;;;;;;;34.13;23.88;;;;;;;12.82;100.00;100965.16;5009437;28;20041;-72
2022/10/23 04:41:22;;;;;;;33.78;23.23;;;;;;;12.93;100.00;100975.84;5008148;28;20053;-71
2022/10/23 04:43:48;;;;;;;31.63;22.98;;;;;;;12.93;100.00;100975.84;5008751;28;20041;-71
2022/10/23 04:46:13;;;;;;;32.78;23.25;;;;;;;13.03;100.00;100978.63;5008752;28;20125;-71
2022/10/23 04:48:39;;;;;;;30.13;22.42;;;;;;;12.98;100.00;100959.28;5008356;28;20100;-71
2022/10/23 04:51:05;;;;;;;31.63;23.35;;;;;;;12.92;100.00;100949.06;5002204;28;20026;-71
2022/10/23 04:53:30;;;;;;;30.95;22.38;;;;;;;12.99;100.00;100955.63;5001078;28;20022;-72
2022/10/23 04:55:57;;;;;;;31.27;23.30;;;;;;;13.03;100.00;100995.63;5001674;28;20080;-71
2022/10/23 04:58:25;;;;;;;31.38;23.50;;;;;;;12.98;100.00;100980.81;5005064;28;20038;-70
2022/10/23 05:00:50;;;;;;;30.55;23.15;;;;;;;13.06;100.00;100989.97;4997437;28;20145;-70
2022/10/23 05:03:17;;;;;;;29.05;22.30;;;;;;;13.06;100.00;100989.97;5003471;28;20100;-70
2022/10/23 05:05:42;;;;;;;29.35;22.35;;;;;;;12.89;100.00;100962.78;5001472;28;20827;-70
2022/10/23 05:08:08;;;;;;;35.28;24.55;;;;;;;12.95;100.00;100989.19;5007299;28;20102;-70
2022/10/23 05:10:34;;;;;;;32.13;22.70;;;;;;;12.91;100.00;100987.75;5002114;28;20084;-71
2022/10/23 05:13:00;;;;;;;35.80;25.92;;;;;;;12.78;100.00;100968.25;4999287;28;20041;-70
2022/10/23 05:15:26;;;;;;;33.08;23.55;;;;;;;12.90;100.00;100969.88;5003624;28;20026;-70
2022/10/23 05:17:57;;;;;;;33.45;23.77;;;;;;;12.75;100.00;100958.63;4998565;28;20089;-70
2022/10/23 05:20:29;;;;;;;31.23;23.17;;;;;;;12.84;100.00;100978.50;5000502;28;20042;-70
2022/10/23 05:22:58;;;;;;;30.42;22.52;;;;;;;12.97;100.00;100997.97;5003317;28;20034;-70
2022/10/23 05:25:23;;;;;;;31.38;22.80;;;;;;;12.88;100.00;100993.38;4997684;28;20142;-69
2022/10/23 05:27:49;;;;;;;26.17;21.25;;;;;;;12.97;100.00;101006.91;4998955;28;20105;-70
2022/10/23 05:30:14;;;;;;;27.90;21.15;;;;;;;12.87;100.00;100994.38;5003086;28;20180;-71
2022/10/23 05:32:40;;;;;;;27.25;21.02;;;;;;;12.80;100.00;100982.44;5010959;28;20042;-71
2022/10/23 05:35:08;;;;;;;27.95;22.40;;;;;;;12.85;100.00;100980.19;5011631;28;20030;-71
2022/10/23 05:37:37;;;;;;;31.58;23.10;;;;;;;12.82;100.00;101000.16;5011279;28;20042;-71
2022/10/23 05:40:03;;;;;;;29.63;21.13;;;;;;;12.83;100.00;101014.50;5011139;28;20041;-71
2022/10/23 05:42:29;;;;;;;31.17;22.83;;;;;;;12.88;100.00;101006.84;5012641;28;20041;-70
2022/10/23 05:44:54;;;;;;;29.90;22.95;;;;;;;12.70;100.00;100998.53;5011272;28;20037;-71
2022/10/23 05:47:19;;;;;;;29.92;22.10;;;;;;;12.75;100.00;100998.13;5010690;28;20026;-71
2022/10/23 05:49:45;;;;;;;31.95;22.27;;;;;;;12.74;100.00;100993.75;5011422;28;20041;-71
2022/10/23 05:52:11;;;;;;;31.38;22.50;;;;;;;12.84;100.00;101024.25;5011249;28;20014;-70
2022/10/23 05:54:37;;;;;;;37.15;25.15;;;;;;;12.79;100.00;101018.41;5016064;28;20648;-72
2022/10/23 05:57:02;;;;;;;33.63;23.55;;;;;;;12.78;100.00;101019.41;5011828;28;20029;-73
2022/10/23 05:59:28;;;;;;;38.85;25.05;;;;;;;12.84;100.00;101021.56;5011349;28;20022;-72
2022/10/23 06:01:54;;;;;;;38.65;25.48;;;;;;;12.87;100.00;101015.91;5011238;28;20033;-73
2022/10/23 06:04:19;;;;;;;36.63;25.20;;;;;;;12.69;100.00;101007.59;5010329;28;20377;-72
2022/10/23 06:06:45;;;;;;;40.00;27.00;;;;;;;12.78;100.00;101032.84;5011727;28;20034;-73
2022/10/23 06:09:11;;;;;;;39.17;26.92;;;;;;;12.78;100.00;101027.47;5009648;28;20040;-72
2022/10/23 06:11:36;;;;;;;41.50;27.45;;;;;;;12.73;100.00;101021.63;5010955;28;20022;-72
2022/10/23 06:14:02;;;;;;;42.95;28.63;;;;;;;12.77;100.00;101021.22;5011107;28;20052;-72
2022/10/23 06:16:27;;;;;;;45.30;29.25;;;;;;;12.87;100.00;101029.38;5010928;28;20522;-73
2022/10/23 06:18:53;;;;;;;43.53;27.80;;;;;;;12.60;100.00;100981.44;5010858;28;20037;-73
2022/10/23 06:21:19;;;;;;;49.22;29.08;;;;;;;13.00;100.00;101047.06;5010629;28;20036;-72
2022/10/23 06:23:45;;;;;;;41.17;27.20;;;;;;;12.98;100.00;101042.75;5010500;28;20113;-72
2022/10/23 06:26:13;;;;;;;44.22;29.40;;;;;;;12.96;100.00;101042.06;5010563;28;20108;-72
2022/10/23 06:28:39;;;;;;;44.45;30.75;;;;;;;13.05;100.00;101034.06;5009069;28;20840;-71
2022/10/23 06:31:07;;;;;;;49.95;33.30;;;;;;;13.07;100.00;101040.19;5010376;28;20029;-71
2022/10/23 06:33:32;;;;;;;49.65;32.08;;;;;;;13.04;100.00;101044.97;5010216;28;20025;-71
2022/10/23 06:35:58;;;;;;;52.63;33.00;;;;;;;12.74;100.00;101007.19;5006606;28;20025;-71
2022/10/23 06:38:23;;;;;;;58.28;32.55;;;;;;;13.06;100.00;101057.31;5010452;28;20049;-72
2022/10/23 06:40:53;;;;;;;52.97;34.10;;;;;;;13.04;100.00;101063.81;5000013;28;20050;-72
2022/10/23 06:43:18;;;;;;;49.05;32.55;;;;;;;12.98;100.00;101046.31;4999945;28;20037;-71
2022/10/23 06:45:44;;;;;;;45.67;29.95;;;;;;;12.93;100.00;101031.56;4999145;28;20045;-72
2022/10/23 06:48:09;;;;;;;42.92;28.45;;;;;;;12.98;100.00;101050.84;5005935;28;20033;-72
2022/10/23 06:50:38;;;;;;;42.50;29.10;;;;;;;13.11;100.00;101065.00;4987371;28;20028;-72
2022/10/23 06:53:04;;;;;;;43.50;29.67;;;;;;;13.04;100.00;101067.38;5001743;28;20241;-72
2022/10/23 06:55:31;;;;;;;41.65;28.70;;;;;;;12.89;100.00;101055.19;4987407;28;20061;-72
2022/10/23 06:57:56;;;;;;;39.25;25.73;;;;;;;13.04;100.00;101063.81;4989557;28;20517;-72
2022/10/23 07:00:23;;;;;;;35.35;24.38;;;;;;;12.99;100.00;101074.13;5007563;28;20061;-72
2022/10/23 07:02:49;;;;;;;32.78;23.33;;;;;;;13.00;100.00;101076.69;5006911;28;20021;-73
2022/10/23 07:05:15;;;;;;;34.30;25.13;;;;;;;12.93;100.00;101061.19;5008368;28;20108;-72
2022/10/23 07:07:40;;;;;;;29.75;22.60;;;;;;;13.00;100.00;101082.06;5009479;28;20120;-72
2022/10/23 07:10:06;;;;;;;29.33;21.35;;;;;;;13.03;100.00;101083.66;5007362;28;20017;-72
2022/10/23 07:12:31;;;;;;;24.70;18.55;;;;;;;13.05;100.00;101089.75;5007709;28;20053;-72
2022/10/23 07:14:57;;;;;;;24.40;17.48;;;;;;;13.11;100.00;101094.63;5008754;28;20392;-73
2022/10/23 07:17:22;;;;;;;23.77;17.02;;;;;;;13.03;100.00;101094.44;5008589;28;20034;-72
2022/10/23 07:19:48;;;;;;;23.98;17.05;;;;;;;13.15;100.00;101098.75;5009492;28;20036;-73
2022/10/23 07:22:13;;;;;;;23.35;18.13;;;;;;;13.08;100.00;101093.06;5009309;28;20037;-72
2022/10/23 07:24:39;;;;;;;24.10;17.60;;;;;;;13.15;100.00;101090.66;5008884;28;20045;-72
2022/10/23 07:27:05;;;;;;;21.85;16.88;;;;;;;13.17;100.00;101086.88;5008992;28;20419;-73
2022/10/23 07:29:32;;;;;;;21.70;16.88;;;;;;;13.29;100.00;101093.88;5009225;28;20030;-73
2022/10/23 07:31:59;;;;;;;25.55;17.52;;;;;;;13.31;100.00;101093.75;5009473;28;20046;-72
2022/10/23 07:34:26;;;;;;;20.35;16.13;;;;;;;13.26;100.00;101082.53;5008826;28;20025;-71
2022/10/23 07:36:53;;;;;;;19.58;16.48;;;;;;;13.40;100.00;101095.66;5009354;28;20109;-72
2022/10/23 07:39:21;;;;;;;17.92;14.52;;;;;;;13.39;100.00;101088.56;5009312;28;20037;-72
2022/10/23 07:41:46;;;;;;;17.83;15.35;;;;;;;13.50;100.00;101100.09;5008908;28;20157;-72
2022/10/23 07:44:12;;;;;;;18.02;14.43;;;;;;;13.56;100.00;101088.78;5008365;28;20057;-72
2022/10/23 07:46:37;;;;;;;16.40;14.00;;;;;;;13.61;100.00;101083.00;5008594;28;20026;-71
2022/10/23 07:49:03;;;;;;;16.88;14.73;;;;;;;13.76;100.00;101099.66;5007001;28;20025;-72
2022/10/23 07:51:28;;;;;;;17.05;14.10;;;;;;;13.54;100.00;101077.28;5009189;28;20042;-71
2022/10/23 07:53:54;;;;;;;18.02;14.43;;;;;;;13.75;100.00;101096.09;5008749;28;20103;-71
2022/10/23 07:56:23;;;;;;;16.55;14.20;;;;;;;13.83;100.00;101100.81;5008415;28;20022;-72
2022/10/23 07:58:52;;;;;;;17.35;13.93;;;;;;;13.88;100.00;101102.09;5007883;28;20038;-71
2022/10/23 08:01:39;;;;;;;19.17;15.50;;;;;;;13.94;100.00;101104.25;5007360;28;20444;-72
2022/10/23 08:04:05;;;;;;;18.30;14.50;;;;;;;13.95;100.00;101097.00;5008028;28;20045;-73
2022/10/23 08:06:30;;;;;;;19.05;14.98;;;;;;;13.96;100.00;101096.88;5006848;28;20018;-73
2022/10/23 08:08:56;;;;;;;18.00;14.45;;;;;;;14.11;100.00;101100.03;5008222;28;20049;-69
2022/10/23 08:11:27;;;;;;;17.02;14.45;;;;;;;14.22;100.00;101105.34;5007831;28;20040;-72
2022/10/23 08:13:57;;;;;;;16.95;14.05;;;;;;;14.25;100.00;101088.91;5006551;28;20030;-72
2022/10/23 08:16:23;;;;;;;15.70;13.98;;;;;;;14.28;100.00;101094.84;5007812;28;20040;-72
2022/10/23 08:18:49;;;;;;;14.45;12.95;;;;;;;14.04;100.00;101050.34;5008279;28;20037;-72
2022/10/23 08:21:16;;;;;;;14.88;13.27;;;;;;;14.24;100.00;101071.84;5008188;28;20026;-72
2022/10/23 08:23:42;;;;;;;14.63;12.95;;;;;;;14.38;100.00;101084.09;5007612;28;20038;-71
2022/10/23 08:26:08;;;;;;;15.85;12.57;;;;;;;14.51;100.00;101090.91;5006014;28;20041;-72
2022/10/23 08:28:34;;;;;;;16.50;12.38;;;;;;;14.47;100.00;101089.50;5007014;28;20745;-72
2022/10/23 08:31:12;;;;;;;13.98;12.20;;;;;;;14.66;100.00;101092.19;5006787;28;20060;-72
2022/10/23 08:33:38;;;;;;;14.25;12.45;;;;;;;14.64;100.00;101096.88;5006017;28;20045;-72
2022/10/23 08:36:04;;;;;;;15.60;13.05;;;;;;;14.58;100.00;101081.28;5006552;28;20480;-73
2022/10/23 08:38:29;;;;;;;14.27;12.27;;;;;;;14.67;100.00;101090.38;5008207;28;20085;-73
2022/10/23 08:40:55;;;;;;;14.82;13.18;;;;;;;14.89;100.00;101090.91;5007905;28;20042;-71
2022/10/23 08:43:31;;;;;;;14.27;12.68;;;;;;;14.93;100.00;101088.78;5006584;28;20030;-72
2022/10/23 08:46:15;;;;;;;14.43;12.80;;;;;;;15.15;100.00;101100.13;5007544;28;20034;-72
2022/10/23 08:48:47;;;;;;;16.45;12.85;;;;;;;15.36;100.00;101100.84;5007576;28;20484;-72
2022/10/23 08:51:20;;;;;;;13.77;12.20;;;;;;;15.53;100.00;101102.78;5007612;28;20088;-72
2022/10/23 08:53:57;;;;;;;16.92;13.43;;;;;;;15.75;100.00;101102.41;5008214;28;20045;-72
2022/10/23 08:56:32;;;;;;;15.52;13.15;;;;;;;16.01;100.00;101101.69;5007964;28;20381;-73
2022/10/23 08:59:04;;;;;;;13.80;12.27;;;;;;;16.06;100.00;101072.34;5007340;28;20713;-72
2022/10/23 09:01:48;;;;;;;14.45;12.40;;;;;;;16.14;100.00;101067.00;5006464;28;20030;-72
2022/10/23 09:04:14;;;;;;;13.07;11.75;;;;;;;16.41;100.00;101094.06;5008158;28;20133;-73
2022/10/23 09:07:09;;;;;;;15.43;12.60;;;;;;;16.57;100.00;101089.69;5006221;28;20506;-72
2022/10/23 09:09:56;;;;;;;15.20;13.02;;;;;;;16.68;99.55;101089.47;4988707;28;20506;-73
2022/10/23 09:12:23;;;;;;;14.15;11.93;;;;;;;16.78;98.77;101086.66;5006432;28;20468;-71
2022/10/23 09:15:01;;;;;;;14.30;12.20;;;;;;;16.93;96.38;101074.28;5008152;28;20053;-72
2022/10/23 09:17:42;;;;;;;13.80;12.40;;;;;;;17.05;94.95;101073.88;5006149;28;20065;-72
2022/10/23 09:20:30;;;;;;;15.23;12.00;;;;;;;17.28;94.42;101076.94;5007624;28;20032;-72
2022/10/23 09:23:17;;;;;;;12.70;11.40;;;;;;;17.68;93.26;101067.19;5006146;28;20034;-73
2022/10/23 09:25:44;;;;;;;14.13;10.70;;;;;;;19.04;82.75;101057.66;5003322;28;20030;-71
2022/10/23 09:28:35;;;;;;;11.73;10.52;;;;;;;21.35;70.91;101051.22;4985975;28;20037;-71
2022/10/23 09:31:07;;;;;;;11.80;9.65;;;;;;;23.34;61.72;101045.88;4988287;28;20475;-72
2022/10/23 09:33:35;;;;;;;9.82;8.82;;;;;;;24.74;55.57;101049.72;5004358;28;20030;-72
2022/10/23 09:36:04;;;;;;;9.55;8.55;;;;;;;25.95;51.45;101056.41;5006278;28;20113;-71
2022/10/23 09:38:35;;;;;;;10.98;9.88;;;;;;;26.98;47.95;101042.34;5010309;28;20542;-71
2022/10/23 09:41:31;;;;;;;8.93;8.07;;;;;;;27.85;45.68;101044.97;5011765;28;20515;-71
2022/10/23 09:44:14;;;;;;;8.00;7.20;;;;;;;28.83;43.29;101063.88;5010965;28;20026;-71
2022/10/23 09:46:41;;;;;;;7.82;7.13;;;;;;;29.29;42.11;101054.84;5010861;28;20034;-72
2022/10/23 09:49:19;;;;;;;6.68;6.13;;;;;;;29.64;40.61;101064.03;5011209;28;20388;-71
2022/10/23 09:52:07;;;;;;;8.95;6.53;;;;;;;29.61;40.54;101064.53;5010647;28;20519;-73
2022/10/23 09:54:37;;;;;;;6.78;6.25;;;;;;;29.03;41.84;101055.25;5009553;28;20048;-70
2022/10/23 09:57:18;;;;;;;7.05;6.45;;;;;;;28.20;43.46;101035.84;5011164;28;20068;-71
2022/10/23 09:59:50;;;;;;;8.30;7.45;;;;;;;27.87;44.37;101074.03;5010886;28;20084;-71
2022/10/23 10:02:36;;;;;;;8.52;7.65;;;;;;;27.16;45.92;101066.38;5010647;28;20100;-71
2022/10/23 10:05:22;;;;;;;8.52;7.72;;;;;;;26.50;47.22;101074.19;5009717;28;20168;-71
2022/10/23 10:08:02;;;;;;;9.73;8.43;;;;;;;26.09;48.32;101079.25;5010432;28;20033;-71
2022/10/23 10:10:43;;;;;;;10.40;7.30;;;;;;;25.41;50.47;101063.31;5000647;28;20049;-71
2022/10/23 10:13:32;;;;;;;9.23;7.93;;;;;;;24.65;53.04;101088.53;5009715;28;20045;-71
2022/10/23 10:16:04;;;;;;;8.77;7.75;;;;;;;24.05;54.47;101068.22;5001047;28;20037;-72
2022/10/23 10:18:44;;;;;;;8.93;7.55;;;;;;;23.60;56.33;101081.66;5010477;28;20423;-70
2022/10/23 10:21:19;;;;;;;8.73;7.82;;;;;;;23.01;58.86;101077.53;5010350;28;20030;-70
2022/10/23 10:24:10;;;;;;;8.98;7.93;;;;;;;22.50;61.23;101076.78;5010224;28;20037;-71
2022/10/23 10:27:00;;;;;;;8.43;7.63;;;;;;;21.97;62.92;101075.28;5010273;28;20038;-71
2022/10/23 10:29:37;;;;;;;7.15;6.45;;;;;;;21.59;65.38;101067.31;5009436;28;21390;-71
2022/10/23 10:32:31;;;;;;;7.03;6.03;;;;;;;21.25;67.06;101050.66;5010466;28;20030;-71
2022/10/23 10:35:03;;;;;;;6.70;5.50;;;;;;;21.03;68.55;101063.31;5010182;28;20036;-71
2022/10/23 10:37:44;;;;;;;6.20;4.80;;;;;;;20.84;69.12;101071.94;5008667;28;20030;-71
2022/10/23 10:40:23;;;;;;;4.70;4.20;;;;;;;20.63;69.94;101062.75;5009661;28;20077;-71
2022/10/23 10:43:10;;;;;;;4.35;3.92;;;;;;;20.47;71.14;101054.66;5008871;28;20037;-71
2022/10/23 10:45:47;;;;;;;6.57;4.07;;;;;;;20.29;72.30;101040.47;5006582;28;20054;-71
2022/10/23 10:48:23;;;;;;;6.75;3.90;;;;;;;20.28;72.42;101044.22;5008216;28;20088;-71
2022/10/23 10:50:56;;;;;;;5.95;4.47;;;;;;;20.16;73.87;101047.34;5009808;28;20083;-71
2022/10/23 10:53:39;;;;;;;4.20;3.80;;;;;;;20.06;74.05;101035.78;5007836;28;20056;-72
2022/10/23 10:56:10;;;;;;;3.90;3.60;;;;;;;19.99;74.86;101040.25;5002786;28;20038;-72
2022/10/23 10:58:42;;;;;;;6.75;3.47;;;;;;;19.94;74.73;101036.38;4997169;28;20046;-72
2022/10/23 11:01:18;;;;;;;4.75;3.75;;;;;;;19.86;75.23;101020.91;5008633;28;20464;-72
2022/10/23 11:03:51;;;;;;;7.22;3.70;;;;;;;19.90;73.75;101019.53;5024744;28;20174;-72
2022/10/23 11:06:21;;;;;;;3.80;3.42;;;;;;;19.80;75.00;101005.28;5009174;28;20445;-71
2022/10/23 11:08:48;;;;;;;3.40;3.10;;;;;;;19.77;74.48;101005.63;5007793;28;20404;-71
2022/10/23 11:11:25;;;;;;;3.55;3.25;;;;;;;19.76;74.80;101012.13;5010059;28;20472;-72
2022/10/23 11:13:54;;;;;;;3.85;2.95;;;;;;;19.64;75.32;100997.19;5009561;28;20087;-72
2022/10/23 11:16:25;;;;;;;4.07;2.92;;;;;;;19.70;74.22;101004.66;5006506;28;20077;-72
2022/10/23 11:19:12;;;;;;;3.10;2.78;;;;;;;19.64;74.71;100997.19;5012650;28;20100;-72